Time;durP1;ratioP1;P1;durP2;ratioP2;P2;SDS_P1;SDS_P2;PMS_P1;PMS_P2;Temp;Humidity;BMP_temperature;BMP_pressure;BME280_temperature;BME280_humidity;BME280_pressure;Samples;Min_cycle;Max_cycle;Signal;HPM_P1;HPM_P2
2023/09/04 00:01:45;;;;;;;8.20;6.97;;;;;;;;;;5114831;28;20058;-79
2023/09/04 00:04:11;;;;;;;7.18;5.93;;;;;;;;;;5118209;28;20050;-79
2023/09/04 00:06:37;;;;;;;7.72;6.30;;;;;;;;;;5118099;28;20054;-79
2023/09/04 00:09:04;;;;;;;7.43;6.35;;;;;;;;;;5123641;27;20143;-79
2023/09/04 00:11:31;;;;;;;8.05;5.65;;;;;;;;;;5102669;27;20517;-79
2023/09/04 00:13:57;;;;;;;7.43;5.43;;;;;;;;;;5110444;28;20036;-79
2023/09/04 00:16:23;;;;;;;7.65;5.50;;;;;;;;;;5118103;28;20493;-79
2023/09/04 00:18:49;;;;;;;8.43;5.97;;;;;;;;;;5118190;28;20079;-79
2023/09/04 00:21:15;;;;;;;7.13;5.20;;;;;;;;;;5122877;27;20043;-79
2023/09/04 00:23:41;;;;;;;6.43;5.05;;;;;;;;;;5097691;28;20048;-79
2023/09/04 00:26:07;;;;;;;6.80;4.93;;;;;;;;;;5080888;28;20255;-79
2023/09/04 00:28:33;;;;;;;6.70;5.00;;;;;;;;;;5099243;28;20402;-79
2023/09/04 00:31:00;;;;;;;6.55;4.53;;;;;;;;;;5120022;27;20128;-79
2023/09/04 00:33:26;;;;;;;5.82;4.40;;;;;;;;;;5110246;27;20379;-78
2023/09/04 00:35:52;;;;;;;6.22;4.78;;;;;;;;;;5098386;28;20047;-79
2023/09/04 00:38:18;;;;;;;8.50;4.38;;;;;;;;;;5107606;28;20130;-79
2023/09/04 00:40:45;;;;;;;6.00;4.32;;;;;;;;;;5107543;28;20048;-79
2023/09/04 00:43:11;;;;;;;6.38;4.18;;;;;;;;;;5096169;28;20521;-79
2023/09/04 00:45:37;;;;;;;6.57;4.72;;;;;;;;;;5112115;28;20048;-79
2023/09/04 00:48:03;;;;;;;7.10;4.60;;;;;;;;;;5095441;28;20047;-79
2023/09/04 00:50:30;;;;;;;6.70;3.97;;;;;;;;;;5114600;28;20042;-79
2023/09/04 00:52:58;;;;;;;6.50;4.00;;;;;;;;;;5107552;28;20042;-79
2023/09/04 00:55:25;;;;;;;8.18;3.88;;;;;;;;;;5108178;28;20044;-79
2023/09/04 00:57:52;;;;;;;6.65;3.90;;;;;;;;;;5096823;28;20528;-78
2023/09/04 01:00:22;;;;;;;5.28;3.78;;;;;;;;;;5113517;27;20052;-79
2023/09/04 01:02:48;;;;;;;6.28;3.40;;;;;;;;;;5089581;28;20051;-79
2023/09/04 01:05:14;;;;;;;5.10;3.40;;;;;;;;;;5098468;28;20036;-80
2023/09/04 01:07:41;;;;;;;5.38;3.47;;;;;;;;;;5100516;28;20056;-79
2023/09/04 01:10:10;;;;;;;4.82;3.55;;;;;;;;;;5113557;28;20143;-79
2023/09/04 01:12:40;;;;;;;6.45;3.92;;;;;;;;;;5115093;28;20047;-79
2023/09/04 01:15:08;;;;;;;5.47;3.25;;;;;;;;;;5097153;28;20055;-79
2023/09/04 01:17:35;;;;;;;4.95;3.00;;;;;;;;;;5112649;28;20083;-79
2023/09/04 01:20:13;;;;;;;5.82;3.65;;;;;;;;;;5106483;28;20040;-79
2023/09/04 01:22:39;;;;;;;7.18;3.70;;;;;;;;;;5096512;28;20044;-79
2023/09/04 01:25:05;;;;;;;6.60;3.70;;;;;;;;;;5100885;28;20047;-79
2023/09/04 01:27:39;;;;;;;5.47;3.83;;;;;;;;;;5107652;28;20490;-79
2023/09/04 01:30:07;;;;;;;5.10;3.40;;;;;;;;;;5107574;28;20057;-79
2023/09/04 01:32:36;;;;;;;4.43;2.60;;;;;;;;;;5095951;28;20516;-80
2023/09/04 01:35:04;;;;;;;4.20;2.47;;;;;;;;;;5094276;28;20069;-80
2023/09/04 01:37:31;;;;;;;4.70;2.20;;;;;;;;;;5110698;28;20047;-80
2023/09/04 01:39:57;;;;;;;4.20;2.50;;;;;;;;;;5098702;28;20044;-80
2023/09/04 01:42:23;;;;;;;4.85;2.38;;;;;;;;;;5104077;28;20048;-80
2023/09/04 01:44:49;;;;;;;4.80;2.70;;;;;;;;;;5115055;28;20036;-80
2023/09/04 01:47:15;;;;;;;5.03;2.88;;;;;;;;;;5113242;28;20424;-79
2023/09/04 01:49:42;;;;;;;5.53;3.25;;;;;;;;;;5100785;28;20044;-79
2023/09/04 01:52:09;;;;;;;4.47;2.78;;;;;;;;;;5114732;28;20047;-79
2023/09/04 01:54:36;;;;;;;4.95;3.40;;;;;;;;;;5113576;28;20100;-80
2023/09/04 01:57:02;;;;;;;6.65;3.80;;;;;;;;;;5105948;28;20077;-80
2023/09/04 01:59:28;;;;;;;8.73;3.80;;;;;;;;;;5104581;28;20047;-80
2023/09/04 02:01:54;;;;;;;4.85;2.53;;;;;;;;;;5113307;28;20051;-80
2023/09/04 02:04:20;;;;;;;4.30;2.25;;;;;;;;;;5114258;28;20040;-80
2023/09/04 02:06:46;;;;;;;4.40;2.50;;;;;;;;;;5111295;28;20051;-80
2023/09/04 02:09:13;;;;;;;4.95;2.30;;;;;;;;;;5100427;28;20043;-80
2023/09/04 02:11:39;;;;;;;4.97;2.60;;;;;;;;;;5101896;28;20035;-80
2023/09/04 02:14:05;;;;;;;5.20;2.72;;;;;;;;;;5107881;28;20044;-80
2023/09/04 02:16:31;;;;;;;5.85;2.33;;;;;;;;;;5115405;28;20044;-80
2023/09/04 02:18:57;;;;;;;4.00;2.40;;;;;;;;;;5109972;28;20052;-80
2023/09/04 02:21:23;;;;;;;5.53;2.72;;;;;;;;;;5115820;28;20040;-80
2023/09/04 02:23:50;;;;;;;4.85;2.47;;;;;;;;;;5114045;28;20039;-80
2023/09/04 02:26:16;;;;;;;4.45;2.40;;;;;;;;;;5115283;28;20040;-80
2023/09/04 02:28:42;;;;;;;4.00;2.20;;;;;;;;;;5094896;28;20642;-80
2023/09/04 02:31:09;;;;;;;3.72;1.90;;;;;;;;;;5099892;28;20039;-79
2023/09/04 02:33:35;;;;;;;3.83;2.00;;;;;;;;;;5110437;28;20041;-80
2023/09/04 02:36:01;;;;;;;3.70;2.00;;;;;;;;;;5095467;28;20032;-80
2023/09/04 02:38:27;;;;;;;3.38;1.85;;;;;;;;;;5104499;28;20039;-80
2023/09/04 02:40:53;;;;;;;3.90;2.08;;;;;;;;;;5116111;28;20039;-79
2023/09/04 02:43:19;;;;;;;4.93;2.10;;;;;;;;;;5104740;28;20539;-79
2023/09/04 02:45:49;;;;;;;4.32;2.35;;;;;;;;;;5087849;28;20485;-79
2023/09/04 02:48:15;;;;;;;4.78;2.30;;;;;;;;;;5099763;28;20070;-79
2023/09/04 02:50:41;;;;;;;4.25;2.50;;;;;;;;;;5108039;28;20048;-80
2023/09/04 02:53:07;;;;;;;3.83;2.20;;;;;;;;;;5088878;28;20040;-79
2023/09/04 02:55:33;;;;;;;3.45;1.90;;;;;;;;;;5099068;28;20044;-79
2023/09/04 02:57:59;;;;;;;3.40;1.95;;;;;;;;;;5098801;28;20093;-79
2023/09/04 03:00:25;;;;;;;5.22;2.10;;;;;;;;;;5112787;28;20047;-80
2023/09/04 03:02:51;;;;;;;3.53;2.08;;;;;;;;;;5103906;28;20115;-80
2023/09/04 03:05:18;;;;;;;4.45;2.10;;;;;;;;;;5116818;28;20067;-80
2023/09/04 03:07:44;;;;;;;4.63;2.00;;;;;;;;;;5118734;28;20042;-80
2023/09/04 03:10:10;;;;;;;3.78;1.77;;;;;;;;;;5119705;28;20075;-80
2023/09/04 03:12:36;;;;;;;4.40;2.30;;;;;;;;;;5098233;28;20095;-80
2023/09/04 03:15:03;;;;;;;3.58;2.05;;;;;;;;;;5108892;28;20498;-80
2023/09/04 03:17:30;;;;;;;3.85;1.90;;;;;;;;;;5115936;28;20031;-80
2023/09/04 03:19:57;;;;;;;3.47;1.90;;;;;;;;;;5119643;28;20406;-79
2023/09/04 03:22:23;;;;;;;3.55;1.83;;;;;;;;;;5096320;28;20040;-80
2023/09/04 03:24:50;;;;;;;5.90;1.50;;;;;;;;;;5105982;28;20035;-80
2023/09/04 03:27:16;;;;;;;3.83;1.20;;;;;;;;;;5107196;28;20055;-79
2023/09/04 03:29:43;;;;;;;3.55;1.88;;;;;;;;;;5087174;28;20047;-79
2023/09/04 03:32:09;;;;;;;3.58;1.67;;;;;;;;;;5115040;28;20042;-79
2023/09/04 03:34:35;;;;;;;3.38;1.73;;;;;;;;;;5118145;28;20549;-80
2023/09/04 03:37:01;;;;;;;4.60;1.80;;;;;;;;;;5099418;28;20048;-79
2023/09/04 03:39:27;;;;;;;3.60;1.90;;;;;;;;;;5098911;28;20080;-79
2023/09/04 03:41:53;;;;;;;4.35;1.67;;;;;;;;;;5094463;28;20074;-80
2023/09/04 03:44:19;;;;;;;3.67;1.60;;;;;;;;;;5115237;28;20036;-80
2023/09/04 03:46:45;;;;;;;4.40;2.35;;;;;;;;;;5105885;28;20044;-79
2023/09/04 03:49:12;;;;;;;5.95;3.10;;;;;;;;;;5107821;28;20062;-80
2023/09/04 03:51:39;;;;;;;5.38;2.80;;;;;;;;;;5118868;28;20043;-79
2023/09/04 03:54:05;;;;;;;6.82;2.97;;;;;;;;;;5115381;28;20048;-79
2023/09/04 03:56:31;;;;;;;6.97;3.30;;;;;;;;;;5114828;28;20047;-79
2023/09/04 03:58:58;;;;;;;5.72;3.72;;;;;;;;;;5112887;28;20035;-80
2023/09/04 04:01:24;;;;;;;6.43;3.60;;;;;;;;;;5103994;28;20036;-80
2023/09/04 04:03:51;;;;;;;6.15;3.85;;;;;;;;;;5101172;28;20048;-80
2023/09/04 04:06:17;;;;;;;7.53;3.90;;;;;;;;;;5105707;28;20048;-80
2023/09/04 04:08:44;;;;;;;7.55;3.83;;;;;;;;;;5108394;28;20120;-80
2023/09/04 04:11:10;;;;;;;5.90;3.25;;;;;;;;;;5097899;28;20494;-80
2023/09/04 04:13:36;;;;;;;5.00;2.67;;;;;;;;;;5097499;28;20414;-80
2023/09/04 04:16:02;;;;;;;4.25;2.60;;;;;;;;;;5082251;28;20130;-80
2023/09/04 04:18:29;;;;;;;4.50;2.40;;;;;;;;;;5111883;28;20503;-80
2023/09/04 04:20:55;;;;;;;4.32;2.08;;;;;;;;;;5104880;28;20036;-80
2023/09/04 04:23:21;;;;;;;4.90;2.47;;;;;;;;;;5100360;28;20039;-79
2023/09/04 04:25:51;;;;;;;4.82;3.08;;;;;;;;;;5104551;28;20039;-79
2023/09/04 04:28:20;;;;;;;5.32;3.08;;;;;;;;;;5115277;28;20040;-79
2023/09/04 04:30:46;;;;;;;3.78;2.00;;;;;;;;;;5110248;28;20040;-79
2023/09/04 04:33:13;;;;;;;2.25;1.05;;;;;;;;;;5113644;28;20043;-80
2023/09/04 04:35:39;;;;;;;2.63;1.25;;;;;;;;;;5115207;28;20079;-80
2023/09/04 04:38:08;;;;;;;2.53;1.25;;;;;;;;;;5113713;28;20052;-80
2023/09/04 04:40:36;;;;;;;4.32;1.20;;;;;;;;;;5095961;28;20072;-79
2023/09/04 04:43:03;;;;;;;2.63;1.20;;;;;;;;;;5095910;28;20044;-80
2023/09/04 04:45:29;;;;;;;3.00;1.20;;;;;;;;;;5107914;28;20039;-80
2023/09/04 04:47:55;;;;;;;2.90;1.40;;;;;;;;;;5116489;28;20051;-79
2023/09/04 04:50:22;;;;;;;3.78;1.40;;;;;;;;;;5098174;28;20366;-80
2023/09/04 04:52:48;;;;;;;3.58;1.10;;;;;;;;;;5104286;28;20047;-80
2023/09/04 04:55:14;;;;;;;2.15;1.00;;;;;;;;;;5106469;28;20182;-80
2023/09/04 04:57:40;;;;;;;3.22;0.93;;;;;;;;;;5098045;28;20047;-80
2023/09/04 05:00:07;;;;;;;2.22;0.77;;;;;;;;;;5113835;28;20096;-80
2023/09/04 05:02:36;;;;;;;2.03;0.90;;;;;;;;;;5106395;28;20048;-80
2023/09/04 05:05:03;;;;;;;3.45;1.20;;;;;;;;;;5100684;28;20063;-80
2023/09/04 05:07:29;;;;;;;3.95;1.73;;;;;;;;;;5104792;28;20070;-80
2023/09/04 05:09:55;;;;;;;4.97;1.80;;;;;;;;;;5091783;28;20092;-80
2023/09/04 05:12:22;;;;;;;4.53;1.90;;;;;;;;;;5098399;28;20075;-80
2023/09/04 05:14:48;;;;;;;5.65;1.80;;;;;;;;;;5095613;28;20046;-79
2023/09/04 05:17:14;;;;;;;5.55;2.45;;;;;;;;;;5091976;28;20065;-80
2023/09/04 05:19:40;;;;;;;4.13;1.58;;;;;;;;;;5095729;28;20127;-80
2023/09/04 05:22:06;;;;;;;2.38;1.10;;;;;;;;;;5103261;28;20089;-79
2023/09/04 05:24:32;;;;;;;3.90;1.60;;;;;;;;;;5108920;28;20386;-79
2023/09/04 05:26:58;;;;;;;5.80;1.60;;;;;;;;;;5114416;28;20047;-79
2023/09/04 05:29:24;;;;;;;6.35;2.13;;;;;;;;;;5115746;28;20043;-80
2023/09/04 05:31:51;;;;;;;6.88;2.50;;;;;;;;;;5113490;28;20051;-80
2023/09/04 05:34:17;;;;;;;7.63;2.50;;;;;;;;;;5096467;28;20040;-80
2023/09/04 05:36:43;;;;;;;6.07;2.53;;;;;;;;;;5095414;28;20044;-80
2023/09/04 05:39:10;;;;;;;6.53;2.60;;;;;;;;;;5115133;28;20049;-80
2023/09/04 05:41:36;;;;;;;4.50;2.20;;;;;;;;;;5101556;28;20131;-80
2023/09/04 05:44:02;;;;;;;4.32;1.70;;;;;;;;;;5098178;28;20063;-81
2023/09/04 05:46:28;;;;;;;2.78;1.30;;;;;;;;;;5112932;28;20035;-78
2023/09/04 05:48:54;;;;;;;4.78;1.80;;;;;;;;;;5092169;28;20043;-79
2023/09/04 05:51:20;;;;;;;5.00;2.08;;;;;;;;;;5113196;28;20051;-79
2023/09/04 05:53:46;;;;;;;6.05;2.45;;;;;;;;;;5106345;28;20055;-79
2023/09/04 05:56:13;;;;;;;5.07;3.17;;;;;;;;;;5103248;28;20043;-79
2023/09/04 05:58:46;;;;;;;6.47;3.70;;;;;;;;;;5104090;28;20135;-79
2023/09/04 06:01:12;;;;;;;5.82;4.18;;;;;;;;;;5101542;28;20116;-80
2023/09/04 06:03:39;;;;;;;7.05;5.50;;;;;;;;;;5094973;28;20440;-80
2023/09/04 06:06:06;;;;;;;7.95;5.28;;;;;;;;;;5093099;28;20051;-80
2023/09/04 06:08:33;;;;;;;8.23;4.88;;;;;;;;;;5098438;28;20059;-80
2023/09/04 06:10:59;;;;;;;7.85;4.80;;;;;;;;;;5113427;28;20070;-80
2023/09/04 06:13:25;;;;;;;10.63;5.25;;;;;;;;;;5099325;28;20482;-79
2023/09/04 06:15:52;;;;;;;9.02;5.05;;;;;;;;;;5120507;28;20043;-79
2023/09/04 06:18:21;;;;;;;7.18;4.20;;;;;;;;;;5098079;28;20039;-80
2023/09/04 06:20:47;;;;;;;6.25;4.45;;;;;;;;;;5121913;28;20078;-79
2023/09/04 06:23:13;;;;;;;7.93;4.65;;;;;;;;;;5101241;28;20706;-79
2023/09/04 06:25:42;;;;;;;7.25;4.68;;;;;;;;;;5116039;28;20043;-77
2023/09/04 06:28:09;;;;;;;6.97;4.68;;;;;;;;;;5111920;28;20070;-77
2023/09/04 06:30:35;;;;;;;8.32;5.35;;;;;;;;;;5097202;28;20048;-77
2023/09/04 06:33:02;;;;;;;7.20;5.35;;;;;;;;;;5109267;28;20082;-78
2023/09/04 06:35:28;;;;;;;7.35;4.70;;;;;;;;;;5116747;28;20039;-78
2023/09/04 06:37:54;;;;;;;9.80;4.90;;;;;;;;;;5107824;28;20055;-77
2023/09/04 06:40:21;;;;;;;7.03;4.70;;;;;;;;;;5118963;28;20508;-78
2023/09/04 06:42:47;;;;;;;7.40;4.80;;;;;;;;;;5094990;28;20165;-78
2023/09/04 06:45:13;;;;;;;16.73;4.40;;;;;;;;;;5114095;28;20054;-77
2023/09/04 06:47:39;;;;;;;12.80;5.10;;;;;;;;;;5113831;28;20079;-78
2023/09/04 06:50:08;;;;;;;8.43;4.35;;;;;;;;;;5112761;28;20404;-78
2023/09/04 06:52:35;;;;;;;8.18;5.07;;;;;;;;;;5111938;28;20040;-78
2023/09/04 06:55:01;;;;;;;9.43;4.80;;;;;;;;;;5119270;28;20044;-77
2023/09/04 06:57:27;;;;;;;6.93;4.43;;;;;;;;;;5115974;28;20074;-77
2023/09/04 06:59:53;;;;;;;5.63;4.80;;;;;;;;;;5116373;28;20067;-77
2023/09/04 07:02:20;;;;;;;8.75;4.75;;;;;;;;;;5117563;28;20060;-77
2023/09/04 07:04:46;;;;;;;8.73;5.07;;;;;;;;;;5117066;28;20043;-79
2023/09/04 07:07:12;;;;;;;7.25;4.80;;;;;;;;;;5115118;28;20467;-77
2023/09/04 07:09:38;;;;;;;6.78;4.68;;;;;;;;;;5117335;28;20054;-78
2023/09/04 07:12:06;;;;;;;12.32;5.13;;;;;;;;;;5119339;28;20052;-78
2023/09/04 07:14:32;;;;;;;8.50;5.13;;;;;;;;;;5109171;28;20044;-78
2023/09/04 07:16:58;;;;;;;8.68;5.28;;;;;;;;;;5111625;27;20497;-78
2023/09/04 07:19:24;;;;;;;7.70;4.93;;;;;;;;;;5113610;28;20124;-78
2023/09/04 07:21:50;;;;;;;6.28;4.82;;;;;;;;;;5116143;28;20040;-77
2023/09/04 07:24:16;;;;;;;7.70;4.97;;;;;;;;;;5119717;28;20051;-78
2023/09/04 07:26:42;;;;;;;7.22;5.10;;;;;;;;;;5114762;28;20078;-78
2023/09/04 07:29:08;;;;;;;7.53;4.50;;;;;;;;;;5110520;28;20424;-79
2023/09/04 07:31:35;;;;;;;8.00;5.05;;;;;;;;;;5116099;28;20047;-77
2023/09/04 07:34:01;;;;;;;8.05;5.28;;;;;;;;;;5112062;28;20048;-78
2023/09/04 07:36:28;;;;;;;7.53;5.50;;;;;;;;;;5095071;28;20047;-77
2023/09/04 07:38:54;;;;;;;14.60;6.35;;;;;;;;;;5115646;28;20047;-77
2023/09/04 07:41:20;;;;;;;10.35;5.78;;;;;;;;;;5116056;28;20058;-77
2023/09/04 07:43:46;;;;;;;8.00;6.05;;;;;;;;;;5115309;28;21009;-77
2023/09/04 07:46:12;;;;;;;8.45;5.30;;;;;;;;;;5115378;28;20039;-77
2023/09/04 07:48:40;;;;;;;10.57;5.63;;;;;;;;;;5112844;28;20047;-77
2023/09/04 07:51:06;;;;;;;8.75;5.80;;;;;;;;;;5114125;27;20054;-78
2023/09/04 07:53:32;;;;;;;6.70;5.07;;;;;;;;;;5098034;28;20048;-77
2023/09/04 07:55:58;;;;;;;7.93;5.25;;;;;;;;;;5105712;28;20048;-78
2023/09/04 07:58:25;;;;;;;6.88;5.00;;;;;;;;;;5093681;28;20048;-78
2023/09/04 08:00:51;;;;;;;18.98;5.80;;;;;;;;;;5111744;28;20040;-78
2023/09/04 08:03:18;;;;;;;8.98;4.50;;;;;;;;;;5101346;28;20052;-78
2023/09/04 08:05:44;;;;;;;7.35;4.97;;;;;;;;;;5106932;28;20534;-79
2023/09/04 08:08:10;;;;;;;6.30;4.55;;;;;;;;;;5109814;28;20062;-78
2023/09/04 08:10:39;;;;;;;7.13;4.97;;;;;;;;;;5097515;28;20120;-78
2023/09/04 08:13:06;;;;;;;7.68;5.10;;;;;;;;;;5107403;28;20054;-78
2023/09/04 08:15:32;;;;;;;8.15;4.63;;;;;;;;;;5114018;28;20105;-78
2023/09/04 08:17:59;;;;;;;5.72;4.55;;;;;;;;;;5112658;28;20554;-78
2023/09/04 08:20:25;;;;;;;10.20;4.78;;;;;;;;;;5107232;27;20044;-78
2023/09/04 08:22:51;;;;;;;6.93;4.90;;;;;;;;;;5106201;28;20043;-78
2023/09/04 08:25:17;;;;;;;6.78;4.47;;;;;;;;;;5114155;28;20122;-78
2023/09/04 08:27:43;;;;;;;7.85;4.22;;;;;;;;;;5102286;28;20040;-78
2023/09/04 08:30:09;;;;;;;7.10;3.67;;;;;;;;;;5116184;28;20047;-79
2023/09/04 08:32:35;;;;;;;5.43;3.20;;;;;;;;;;5097514;28;20055;-76
2023/09/04 08:35:02;;;;;;;5.75;3.78;;;;;;;;;;5106614;28;20040;-77
2023/09/04 08:37:28;;;;;;;5.30;3.20;;;;;;;;;;5114796;28;20055;-79
2023/09/04 08:39:54;;;;;;;6.38;2.97;;;;;;;;;;5116794;28;20048;-79
2023/09/04 08:42:20;;;;;;;5.28;2.80;;;;;;;;;;5114740;28;20052;-78
2023/09/04 08:44:47;;;;;;;6.13;2.88;;;;;;;;;;5116149;28;20105;-78
2023/09/04 08:47:15;;;;;;;6.72;3.05;;;;;;;;;;5092333;28;20044;-79
2023/09/04 08:49:42;;;;;;;4.90;2.63;;;;;;;;;;5116406;28;20039;-79
2023/09/04 08:52:08;;;;;;;7.63;2.70;;;;;;;;;;5116827;28;20047;-79
2023/09/04 08:54:35;;;;;;;5.68;2.50;;;;;;;;;;5117044;28;20051;-79
2023/09/04 08:57:01;;;;;;;6.78;2.58;;;;;;;;;;5115181;28;20044;-78
2023/09/04 08:59:27;;;;;;;5.25;2.50;;;;;;;;;;5099067;28;20040;-79
2023/09/04 09:01:54;;;;;;;5.20;2.50;;;;;;;;;;5109079;28;20040;-78
2023/09/04 09:04:20;;;;;;;5.55;2.40;;;;;;;;;;5106446;28;20084;-78
2023/09/04 09:06:48;;;;;;;5.35;2.70;;;;;;;;;;5105373;28;20400;-78
2023/09/04 09:09:15;;;;;;;5.00;2.42;;;;;;;;;;5097505;28;20054;-78
2023/09/04 09:11:42;;;;;;;5.55;2.53;;;;;;;;;;5115765;28;20052;-78
2023/09/04 09:14:08;;;;;;;5.88;2.55;;;;;;;;;;5115042;28;20047;-78
2023/09/04 09:16:34;;;;;;;7.57;2.90;;;;;;;;;;5102130;28;20044;-79
2023/09/04 09:19:02;;;;;;;5.65;2.85;;;;;;;;;;5094893;28;20052;-79
2023/09/04 09:21:29;;;;;;;5.18;2.60;;;;;;;;;;5095725;28;20055;-79
2023/09/04 09:24:06;;;;;;;5.80;2.60;;;;;;;;;;5078896;28;20056;-79
2023/09/04 09:26:32;;;;;;;5.57;3.30;;;;;;;;;;5115211;28;20043;-79
2023/09/04 09:28:58;;;;;;;6.22;2.90;;;;;;;;;;5115582;28;20050;-79
2023/09/04 09:31:24;;;;;;;6.32;3.03;;;;;;;;;;5115216;28;20097;-79
2023/09/04 09:33:51;;;;;;;7.55;2.72;;;;;;;;;;5115886;28;20040;-80
2023/09/04 09:36:17;;;;;;;5.85;2.85;;;;;;;;;;5116699;28;20058;-79
2023/09/04 09:38:46;;;;;;;5.65;2.70;;;;;;;;;;5116361;28;20036;-80
2023/09/04 09:41:13;;;;;;;7.07;2.70;;;;;;;;;;5115960;28;20043;-79
2023/09/04 09:43:39;;;;;;;5.63;2.83;;;;;;;;;;5096924;28;20052;-79
2023/09/04 09:46:08;;;;;;;7.72;3.00;;;;;;;;;;5114641;28;20458;-80
2023/09/04 09:48:35;;;;;;;6.93;2.95;;;;;;;;;;5115943;28;20462;-80
2023/09/04 09:51:01;;;;;;;6.38;2.42;;;;;;;;;;5116761;28;20132;-80
2023/09/04 09:53:43;;;;;;;6.00;2.95;;;;;;;;;;5115366;28;20043;-80
2023/09/04 09:56:09;;;;;;;6.38;2.63;;;;;;;;;;5108330;28;20073;-80
2023/09/04 09:58:36;;;;;;;4.95;2.22;;;;;;;;;;5098387;28;20062;-80
2023/09/04 10:01:02;;;;;;;5.30;2.45;;;;;;;;;;5116456;28;20048;-80
2023/09/04 10:03:28;;;;;;;7.63;2.60;;;;;;;;;;5096876;28;20409;-80
2023/09/04 10:05:55;;;;;;;5.30;2.45;;;;;;;;;;5116883;28;20051;-80
2023/09/04 10:08:22;;;;;;;7.95;2.22;;;;;;;;;;5116408;28;20056;-80
2023/09/04 10:10:49;;;;;;;6.55;2.42;;;;;;;;;;5117218;28;20044;-80
2023/09/04 10:13:23;;;;;;;7.90;2.70;;;;;;;;;;5096849;28;20078;-80
2023/09/04 10:15:51;;;;;;;6.22;2.83;;;;;;;;;;5109073;28;20039;-80
2023/09/04 10:18:28;;;;;;;5.72;2.13;;;;;;;;;;5096294;28;20123;-80
2023/09/04 10:20:56;;;;;;;4.88;1.90;;;;;;;;;;5077529;28;20052;-80
2023/09/04 10:23:24;;;;;;;5.53;2.28;;;;;;;;;;5101977;28;20051;-80
2023/09/04 10:26:02;;;;;;;5.80;2.42;;;;;;;;;;5100868;28;20387;-79
2023/09/04 10:28:31;;;;;;;8.07;2.80;;;;;;;;;;5116517;28;20059;-80
2023/09/04 10:30:58;;;;;;;6.22;2.50;;;;;;;;;;5116673;28;20052;-80
2023/09/04 10:33:24;;;;;;;5.95;2.25;;;;;;;;;;5116512;28;20390;-80
2023/09/04 10:35:50;;;;;;;9.65;2.28;;;;;;;;;;5115423;28;20054;-80
2023/09/04 10:38:17;;;;;;;6.10;2.75;;;;;;;;;;5115904;28;20097;-79
2023/09/04 10:40:43;;;;;;;7.25;2.30;;;;;;;;;;5116664;28;20039;-80
2023/09/04 10:43:10;;;;;;;5.75;2.67;;;;;;;;;;5116489;28;20436;-79
2023/09/04 10:45:36;;;;;;;5.47;2.58;;;;;;;;;;5116749;28;20040;-81
2023/09/04 10:48:02;;;;;;;5.68;2.38;;;;;;;;;;5113913;28;20056;-79
2023/09/04 10:50:36;;;;;;;5.88;2.20;;;;;;;;;;5116371;28;20052;-80
2023/09/04 10:53:04;;;;;;;5.03;2.20;;;;;;;;;;5114954;28;20050;-79
2023/09/04 10:55:31;;;;;;;4.55;2.15;;;;;;;;;;5103191;28;20047;-79
2023/09/04 10:58:01;;;;;;;5.30;1.77;;;;;;;;;;5078448;28;20032;-80
2023/09/04 11:00:30;;;;;;;4.28;1.70;;;;;;;;;;5117176;28;20446;-79
2023/09/04 11:02:56;;;;;;;5.20;2.10;;;;;;;;;;5120900;28;20058;-80
2023/09/04 11:05:24;;;;;;;5.38;2.30;;;;;;;;;;5120936;28;20040;-80
2023/09/04 11:07:50;;;;;;;6.25;2.10;;;;;;;;;;5119083;28;20059;-79
2023/09/04 11:10:23;;;;;;;4.93;1.90;;;;;;;;;;5120441;28;20055;-80
2023/09/04 11:12:49;;;;;;;4.72;2.13;;;;;;;;;;5102209;28;20067;-80
2023/09/04 11:15:16;;;;;;;4.82;1.90;;;;;;;;;;5120458;28;20040;-80
2023/09/04 11:17:46;;;;;;;5.03;1.70;;;;;;;;;;5119777;28;20122;-80
2023/09/04 11:20:14;;;;;;;4.10;1.85;;;;;;;;;;5118484;28;20081;-80
2023/09/04 11:22:45;;;;;;;5.80;1.90;;;;;;;;;;5120200;28;20058;-80
2023/09/04 11:25:11;;;;;;;4.50;1.98;;;;;;;;;;5120404;28;20040;-80
2023/09/04 11:27:37;;;;;;;4.15;1.70;;;;;;;;;;5119174;28;20052;-81
2023/09/04 11:30:03;;;;;;;4.95;1.90;;;;;;;;;;5101715;28;20051;-80
2023/09/04 11:32:29;;;;;;;5.97;2.25;;;;;;;;;;5118965;28;20039;-80
2023/09/04 11:34:57;;;;;;;5.22;2.08;;;;;;;;;;5081315;28;20048;-80
2023/09/04 11:37:31;;;;;;;6.43;2.17;;;;;;;;;;5088865;28;20103;-81
2023/09/04 11:39:58;;;;;;;4.20;1.80;;;;;;;;;;5098420;28;20547;-78
2023/09/04 11:42:25;;;;;;;6.18;1.98;;;;;;;;;;5099312;28;20058;-79
2023/09/04 11:44:51;;;;;;;5.93;2.10;;;;;;;;;;5086074;28;20582;-79
2023/09/04 11:47:18;;;;;;;5.30;1.88;;;;;;;;;;5118347;28;20051;-79
2023/09/04 11:49:44;;;;;;;4.82;2.00;;;;;;;;;;5119651;28;20086;-79
2023/09/04 11:52:14;;;;;;;4.90;1.80;;;;;;;;;;5119524;28;20043;-79
2023/09/04 11:54:41;;;;;;;3.35;1.60;;;;;;;;;;5120003;28;20068;-79
2023/09/04 11:57:09;;;;;;;4.20;1.75;;;;;;;;;;5119197;28;20118;-80
2023/09/04 11:59:36;;;;;;;4.07;1.75;;;;;;;;;;5118739;28;20047;-79
2023/09/04 12:02:02;;;;;;;3.40;1.70;;;;;;;;;;5119372;28;20048;-80
2023/09/04 12:04:31;;;;;;;5.38;1.80;;;;;;;;;;5101533;28;20109;-80
2023/09/04 12:06:59;;;;;;;4.57;1.75;;;;;;;;;;5100305;28;20043;-79
2023/09/04 12:09:25;;;;;;;5.07;1.80;;;;;;;;;;5119167;28;20131;-80
2023/09/04 12:11:51;;;;;;;6.53;1.90;;;;;;;;;;5118910;28;20048;-81
2023/09/04 12:14:17;;;;;;;3.97;1.65;;;;;;;;;;5118848;28;20156;-80
2023/09/04 12:16:44;;;;;;;3.53;1.65;;;;;;;;;;5118424;28;20079;-80
2023/09/04 12:19:11;;;;;;;8.32;2.30;;;;;;;;;;5118376;28;20043;-80
2023/09/04 12:21:37;;;;;;;4.60;1.70;;;;;;;;;;5101697;28;20073;-80
2023/09/04 12:24:11;;;;;;;6.90;1.65;;;;;;;;;;5119165;28;20051;-79
2023/09/04 12:26:37;;;;;;;4.38;1.60;;;;;;;;;;5102093;28;20056;-80
2023/09/04 12:29:03;;;;;;;3.85;1.90;;;;;;;;;;5101563;28;20068;-80
2023/09/04 12:31:29;;;;;;;8.02;2.35;;;;;;;;;;5109834;28;20047;-80
2023/09/04 12:33:56;;;;;;;5.10;1.70;;;;;;;;;;5098780;28;20082;-79
2023/09/04 12:36:22;;;;;;;5.28;1.88;;;;;;;;;;5118551;28;20048;-79
2023/09/04 12:38:48;;;;;;;6.22;2.08;;;;;;;;;;5113709;28;20044;-79
2023/09/04 12:41:15;;;;;;;5.90;1.90;;;;;;;;;;5118341;28;20035;-79
2023/09/04 12:43:41;;;;;;;4.90;1.80;;;;;;;;;;5117106;28;20542;-79
2023/09/04 12:46:07;;;;;;;4.05;1.80;;;;;;;;;;5110618;28;20051;-79
2023/09/04 12:48:35;;;;;;;4.07;1.80;;;;;;;;;;5114868;28;20537;-79
2023/09/04 12:51:01;;;;;;;4.07;1.95;;;;;;;;;;5118612;28;20055;-79
2023/09/04 12:53:27;;;;;;;4.88;1.77;;;;;;;;;;5114228;28;20044;-80
2023/09/04 12:55:53;;;;;;;5.72;2.15;;;;;;;;;;5111842;28;20040;-79
2023/09/04 12:58:19;;;;;;;5.82;2.20;;;;;;;;;;5104130;28;20070;-78
2023/09/04 13:00:45;;;;;;;5.38;2.20;;;;;;;;;;5112467;28;20036;-79
2023/09/04 13:03:12;;;;;;;5.13;1.80;;;;;;;;;;5113627;28;20054;-78
2023/09/04 13:05:38;;;;;;;4.72;2.33;;;;;;;;;;5117502;28;20043;-79
2023/09/04 13:08:04;;;;;;;4.68;1.95;;;;;;;;;;5117599;28;20566;-79
2023/09/04 13:10:31;;;;;;;5.40;2.28;;;;;;;;;;5104376;28;20040;-79
2023/09/04 13:12:57;;;;;;;4.75;1.98;;;;;;;;;;5100584;28;20506;-79
2023/09/04 13:15:23;;;;;;;4.63;2.00;;;;;;;;;;5102704;28;20055;-79
2023/09/04 13:17:49;;;;;;;4.82;1.85;;;;;;;;;;5117307;28;20040;-79
2023/09/04 13:20:15;;;;;;;6.40;2.00;;;;;;;;;;5102817;28;20048;-79
2023/09/04 13:22:43;;;;;;;4.22;2.08;;;;;;;;;;5097165;28;20051;-79
2023/09/04 13:25:09;;;;;;;4.60;2.03;;;;;;;;;;5113595;27;20043;-79
2023/09/04 13:27:36;;;;;;;5.28;2.10;;;;;;;;;;5119038;28;20039;-79
2023/09/04 13:30:02;;;;;;;5.32;1.90;;;;;;;;;;5117220;28;20172;-79
2023/09/04 13:32:28;;;;;;;5.03;1.80;;;;;;;;;;5113071;28;20114;-79
2023/09/04 13:34:54;;;;;;;5.55;2.08;;;;;;;;;;5118763;28;20043;-79
2023/09/04 13:37:22;;;;;;;4.30;1.73;;;;;;;;;;5118944;28;20058;-78
2023/09/04 13:39:48;;;;;;;4.13;1.80;;;;;;;;;;5117072;28;20050;-79
2023/09/04 13:42:14;;;;;;;5.82;2.00;;;;;;;;;;5118403;28;20485;-79
2023/09/04 13:44:40;;;;;;;4.75;1.90;;;;;;;;;;5115274;28;20468;-79
2023/09/04 13:47:06;;;;;;;5.30;1.83;;;;;;;;;;5114931;28;20607;-79
2023/09/04 13:49:33;;;;;;;6.93;2.22;;;;;;;;;;5116401;28;20051;-79
2023/09/04 13:51:59;;;;;;;5.10;2.00;;;;;;;;;;5119446;27;20048;-78
2023/09/04 13:54:25;;;;;;;5.35;2.20;;;;;;;;;;5117910;27;20047;-81
2023/09/04 13:56:51;;;;;;;4.40;1.90;;;;;;;;;;5115962;28;20134;-79
2023/09/04 13:59:17;;;;;;;4.45;1.80;;;;;;;;;;5115411;28;20043;-79
2023/09/04 14:01:47;;;;;;;4.72;1.90;;;;;;;;;;5115670;28;20123;-79
2023/09/04 14:04:13;;;;;;;5.20;2.00;;;;;;;;;;5094729;28;20074;-79
2023/09/04 14:06:39;;;;;;;5.68;1.95;;;;;;;;;;5111468;28;20350;-79
2023/09/04 14:09:05;;;;;;;5.60;1.70;;;;;;;;;;5116155;28;20044;-79
2023/09/04 14:11:31;;;;;;;5.57;1.90;;;;;;;;;;5117501;28;20065;-79
2023/09/04 14:13:57;;;;;;;5.07;1.95;;;;;;;;;;5116206;28;20043;-80
2023/09/04 14:16:23;;;;;;;4.95;1.95;;;;;;;;;;5114535;28;20043;-79
2023/09/04 14:18:52;;;;;;;6.22;1.75;;;;;;;;;;5117146;28;20067;-79
2023/09/04 14:21:18;;;;;;;4.82;2.22;;;;;;;;;;5115373;28;20048;-78
2023/09/04 14:23:45;;;;;;;4.63;1.95;;;;;;;;;;5103486;28;20539;-79
2023/09/04 14:26:11;;;;;;;4.45;2.13;;;;;;;;;;5097810;28;20116;-78
2023/09/04 14:28:37;;;;;;;3.90;1.80;;;;;;;;;;5116996;28;20548;-80
2023/09/04 14:31:03;;;;;;;4.07;1.70;;;;;;;;;;5117334;28;20047;-79
2023/09/04 14:33:29;;;;;;;3.95;1.70;;;;;;;;;;5116700;28;20032;-79
2023/09/04 14:35:59;;;;;;;5.47;1.90;;;;;;;;;;5119069;28;20103;-79
2023/09/04 14:38:25;;;;;;;4.97;1.83;;;;;;;;;;5109019;28;20093;-79
2023/09/04 14:40:54;;;;;;;4.88;1.63;;;;;;;;;;5100296;28;20098;-79